sensor_id;sensor_type;location;lat;lon;timestamp;temperature;humidity
85176;SHT31;75548;42.444;27.488;2024-02-16T00:02:05;7.79;75.17
85176;SHT31;75548;42.444;27.488;2024-02-16T00:05:31;7.79;75.34
85176;SHT31;75548;42.444;27.488;2024-02-16T00:08:56;7.79;75.52
85176;SHT31;75548;42.444;27.488;2024-02-16T00:12:21;7.78;75.57
85176;SHT31;75548;42.444;27.488;2024-02-16T00:15:47;7.78;76.13
85176;SHT31;75548;42.444;27.488;2024-02-16T00:19:12;7.78;76.01
85176;SHT31;75548;42.444;27.488;2024-02-16T00:22:38;7.78;74.78
85176;SHT31;75548;42.444;27.488;2024-02-16T00:26:03;7.78;74.18
85176;SHT31;75548;42.444;27.488;2024-02-16T00:29:28;7.81;74.58
85176;SHT31;75548;42.444;27.488;2024-02-16T00:32:54;7.72;74.15
85176;SHT31;75548;42.444;27.488;2024-02-16T00:36:19;7.71;74.09
85176;SHT31;75548;42.444;27.488;2024-02-16T00:39:44;7.66;74.64
85176;SHT31;75548;42.444;27.488;2024-02-16T00:43:10;7.62;74.96
85176;SHT31;75548;42.444;27.488;2024-02-16T00:46:35;7.59;75.29
85176;SHT31;75548;42.444;27.488;2024-02-16T00:50:01;7.55;75.89
85176;SHT31;75548;42.444;27.488;2024-02-16T00:53:26;7.51;76.64
85176;SHT31;75548;42.444;27.488;2024-02-16T00:56:54;7.43;76.71
85176;SHT31;75548;42.444;27.488;2024-02-16T01:00:20;7.41;77.27
85176;SHT31;75548;42.444;27.488;2024-02-16T01:03:45;7.37;77.73
85176;SHT31;75548;42.444;27.488;2024-02-16T01:07:10;7.38;77.87
85176;SHT31;75548;42.444;27.488;2024-02-16T01:10:36;7.32;77.58
85176;SHT31;75548;42.444;27.488;2024-02-16T01:14:01;7.35;78.46
85176;SHT31;75548;42.444;27.488;2024-02-16T01:17:27;7.34;77.80
85176;SHT31;75548;42.444;27.488;2024-02-16T01:20:52;7.35;78.77
85176;SHT31;75548;42.444;27.488;2024-02-16T01:24:17;7.37;78.50
85176;SHT31;75548;42.444;27.488;2024-02-16T01:27:43;7.38;78.57
85176;SHT31;75548;42.444;27.488;2024-02-16T01:31:09;7.37;78.31
85176;SHT31;75548;42.444;27.488;2024-02-16T01:34:34;7.40;77.61
85176;SHT31;75548;42.444;27.488;2024-02-16T01:37:59;7.41;76.94
85176;SHT31;75548;42.444;27.488;2024-02-16T01:41:24;7.38;77.06
85176;SHT31;75548;42.444;27.488;2024-02-16T01:44:50;7.38;77.05
85176;SHT31;75548;42.444;27.488;2024-02-16T01:48:15;7.35;76.77
85176;SHT31;75548;42.444;27.488;2024-02-16T01:51:40;7.32;77.28
85176;SHT31;75548;42.444;27.488;2024-02-16T01:55:06;7.32;77.41
85176;SHT31;75548;42.444;27.488;2024-02-16T01:58:31;7.28;77.55
85176;SHT31;75548;42.444;27.488;2024-02-16T02:01:57;7.28;77.41
85176;SHT31;75548;42.444;27.488;2024-02-16T02:05:22;7.30;76.90
85176;SHT31;75548;42.444;27.488;2024-02-16T02:08:48;7.30;77.57
85176;SHT31;75548;42.444;27.488;2024-02-16T02:12:13;7.28;77.60
85176;SHT31;75548;42.444;27.488;2024-02-16T02:15:38;7.24;77.19
85176;SHT31;75548;42.444;27.488;2024-02-16T02:19:04;7.24;76.91
85176;SHT31;75548;42.444;27.488;2024-02-16T02:22:38;7.23;77.38
85176;SHT31;75548;42.444;27.488;2024-02-16T02:26:03;7.16;77.20
85176;SHT31;75548;42.444;27.488;2024-02-16T02:29:29;7.17;77.54
85176;SHT31;75548;42.444;27.488;2024-02-16T02:32:54;7.14;78.01
85176;SHT31;75548;42.444;27.488;2024-02-16T02:36:19;7.10;78.26
85176;SHT31;75548;42.444;27.488;2024-02-16T02:39:45;7.01;78.47
85176;SHT31;75548;42.444;27.488;2024-02-16T02:43:10;7.01;78.31
85176;SHT31;75548;42.444;27.488;2024-02-16T02:46:36;7.01;78.63
85176;SHT31;75548;42.444;27.488;2024-02-16T02:50:01;7.00;78.78
85176;SHT31;75548;42.444;27.488;2024-02-16T02:53:28;7.03;78.70
85176;SHT31;75548;42.444;27.488;2024-02-16T02:56:52;6.96;79.11
85176;SHT31;75548;42.444;27.488;2024-02-16T03:00:23;6.95;79.01
85176;SHT31;75548;42.444;27.488;2024-02-16T03:03:48;6.89;79.27
85176;SHT31;75548;42.444;27.488;2024-02-16T03:07:14;6.86;79.15
85176;SHT31;75548;42.444;27.488;2024-02-16T03:10:39;6.89;79.28
85176;SHT31;75548;42.444;27.488;2024-02-16T03:14:05;6.89;79.08
85176;SHT31;75548;42.444;27.488;2024-02-16T03:17:30;6.85;79.24
85176;SHT31;75548;42.444;27.488;2024-02-16T03:20:58;6.87;79.39
85176;SHT31;75548;42.444;27.488;2024-02-16T03:24:24;6.87;79.37
85176;SHT31;75548;42.444;27.488;2024-02-16T03:27:49;6.85;79.39
85176;SHT31;75548;42.444;27.488;2024-02-16T03:31:21;6.86;79.53
85176;SHT31;75548;42.444;27.488;2024-02-16T03:34:46;6.85;79.44
85176;SHT31;75548;42.444;27.488;2024-02-16T03:38:11;6.80;79.48
85176;SHT31;75548;42.444;27.488;2024-02-16T03:41:40;6.80;79.70
85176;SHT31;75548;42.444;27.488;2024-02-16T03:45:05;6.82;79.70
85176;SHT31;75548;42.444;27.488;2024-02-16T03:48:30;6.82;79.85
85176;SHT31;75548;42.444;27.488;2024-02-16T03:51:56;6.79;79.74
85176;SHT31;75548;42.444;27.488;2024-02-16T03:55:21;6.76;79.43
85176;SHT31;75548;42.444;27.488;2024-02-16T03:58:47;6.79;79.47
85176;SHT31;75548;42.444;27.488;2024-02-16T04:02:12;6.83;79.61
85176;SHT31;75548;42.444;27.488;2024-02-16T04:05:40;6.83;79.73
85176;SHT31;75548;42.444;27.488;2024-02-16T04:09:06;6.82;79.41
85176;SHT31;75548;42.444;27.488;2024-02-16T04:12:31;6.79;79.37
85176;SHT31;75548;42.444;27.488;2024-02-16T04:15:56;6.82;79.59
85176;SHT31;75548;42.444;27.488;2024-02-16T04:19:22;6.80;79.49
85176;SHT31;75548;42.444;27.488;2024-02-16T04:22:47;6.82;79.48
85176;SHT31;75548;42.444;27.488;2024-02-16T04:26:13;6.76;79.45
85176;SHT31;75548;42.444;27.488;2024-02-16T04:29:38;6.76;79.67
85176;SHT31;75548;42.444;27.488;2024-02-16T04:33:03;6.77;79.66
85176;SHT31;75548;42.444;27.488;2024-02-16T04:36:29;6.75;79.94
85176;SHT31;75548;42.444;27.488;2024-02-16T04:39:54;6.79;79.77
85176;SHT31;75548;42.444;27.488;2024-02-16T04:43:20;6.72;79.98
85176;SHT31;75548;42.444;27.488;2024-02-16T04:46:45;6.76;80.08
85176;SHT31;75548;42.444;27.488;2024-02-16T04:50:10;6.75;80.47
85176;SHT31;75548;42.444;27.488;2024-02-16T04:53:36;6.69;80.24
85176;SHT31;75548;42.444;27.488;2024-02-16T04:57:01;6.69;80.26
85176;SHT31;75548;42.444;27.488;2024-02-16T05:00:27;6.69;80.25
85176;SHT31;75548;42.444;27.488;2024-02-16T05:03:52;6.69;80.73
85176;SHT31;75548;42.444;27.488;2024-02-16T05:07:18;6.71;80.55
85176;SHT31;75548;42.444;27.488;2024-02-16T05:10:43;6.71;80.51
85176;SHT31;75548;42.444;27.488;2024-02-16T05:14:10;6.73;80.73
85176;SHT31;75548;42.444;27.488;2024-02-16T05:17:34;6.71;80.73
85176;SHT31;75548;42.444;27.488;2024-02-16T05:20:59;6.68;81.00
85176;SHT31;75548;42.444;27.488;2024-02-16T05:24:25;6.71;80.83
85176;SHT31;75548;42.444;27.488;2024-02-16T05:27:50;6.73;80.78
85176;SHT31;75548;42.444;27.488;2024-02-16T05:31:16;6.72;80.91
85176;SHT31;75548;42.444;27.488;2024-02-16T05:34:41;6.77;80.84
85176;SHT31;75548;42.444;27.488;2024-02-16T05:38:06;6.76;80.93
85176;SHT31;75548;42.444;27.488;2024-02-16T05:41:37;6.73;80.91
85176;SHT31;75548;42.444;27.488;2024-02-16T05:45:03;6.83;80.60
85176;SHT31;75548;42.444;27.488;2024-02-16T05:48:28;6.77;80.41
85176;SHT31;75548;42.444;27.488;2024-02-16T05:51:56;6.79;80.40
85176;SHT31;75548;42.444;27.488;2024-02-16T05:55:27;6.76;80.45
85176;SHT31;75548;42.444;27.488;2024-02-16T05:58:33;6.77;80.52
85176;SHT31;75548;42.444;27.488;2024-02-16T06:00:59;6.80;80.66
85176;SHT31;75548;42.444;27.488;2024-02-16T06:03:44;6.79;80.34
85176;SHT31;75548;42.444;27.488;2024-02-16T06:07:10;6.83;80.36
85176;SHT31;75548;42.444;27.488;2024-02-16T06:10:35;6.86;80.48
85176;SHT31;75548;42.444;27.488;2024-02-16T06:14:00;6.92;80.29
85176;SHT31;75548;42.444;27.488;2024-02-16T06:17:26;6.93;79.67
85176;SHT31;75548;42.444;27.488;2024-02-16T06:20:51;6.89;79.79
85176;SHT31;75548;42.444;27.488;2024-02-16T06:24:16;6.95;79.83
85176;SHT31;75548;42.444;27.488;2024-02-16T06:27:42;7.00;79.61
85176;SHT31;75548;42.444;27.488;2024-02-16T06:31:07;7.01;79.53
85176;SHT31;75548;42.444;27.488;2024-02-16T06:34:33;7.00;79.83
85176;SHT31;75548;42.444;27.488;2024-02-16T06:37:58;6.96;79.80
85176;SHT31;75548;42.444;27.488;2024-02-16T06:41:23;7.03;79.79
85176;SHT31;75548;42.444;27.488;2024-02-16T06:44:51;6.99;79.06
85176;SHT31;75548;42.444;27.488;2024-02-16T06:48:17;7.00;79.25
85176;SHT31;75548;42.444;27.488;2024-02-16T06:51:42;7.01;79.80
85176;SHT31;75548;42.444;27.488;2024-02-16T06:55:08;7.03;79.37
85176;SHT31;75548;42.444;27.488;2024-02-16T06:58:33;7.06;78.81
85176;SHT31;75548;42.444;27.488;2024-02-16T07:01:58;7.06;78.84
85176;SHT31;75548;42.444;27.488;2024-02-16T07:05:24;7.13;78.81
85176;SHT31;75548;42.444;27.488;2024-02-16T07:08:49;7.07;78.58
85176;SHT31;75548;42.444;27.488;2024-02-16T07:12:15;7.07;78.80
85176;SHT31;75548;42.444;27.488;2024-02-16T07:15:40;7.13;78.66
85176;SHT31;75548;42.444;27.488;2024-02-16T07:19:05;7.06;77.81
85176;SHT31;75548;42.444;27.488;2024-02-16T07:22:31;7.07;78.47
85176;SHT31;75548;42.444;27.488;2024-02-16T07:25:56;7.11;78.68
85176;SHT31;75548;42.444;27.488;2024-02-16T07:29:22;7.07;77.99
85176;SHT31;75548;42.444;27.488;2024-02-16T07:32:50;7.13;77.66
85176;SHT31;75548;42.444;27.488;2024-02-16T07:36:15;7.14;77.21
85176;SHT31;75548;42.444;27.488;2024-02-16T07:39:41;7.14;77.19
85176;SHT31;75548;42.444;27.488;2024-02-16T07:43:06;7.20;76.77
85176;SHT31;75548;42.444;27.488;2024-02-16T07:46:31;7.21;76.88
85176;SHT31;75548;42.444;27.488;2024-02-16T07:49:57;7.26;77.15
85176;SHT31;75548;42.444;27.488;2024-02-16T07:53:02;7.30;76.79
85176;SHT31;75548;42.444;27.488;2024-02-16T07:56:08;7.31;76.67
85176;SHT31;75548;42.444;27.488;2024-02-16T07:59:33;7.40;76.49
85176;SHT31;75548;42.444;27.488;2024-02-16T08:02:59;7.35;76.72
85176;SHT31;75548;42.444;27.488;2024-02-16T08:06:25;7.35;76.59
85176;SHT31;75548;42.444;27.488;2024-02-16T08:08:51;7.37;76.17
85176;SHT31;75548;42.444;27.488;2024-02-16T08:11:36;7.34;76.68
85176;SHT31;75548;42.444;27.488;2024-02-16T08:15:05;7.28;76.52
85176;SHT31;75548;42.444;27.488;2024-02-16T08:18:30;7.28;76.86
85176;SHT31;75548;42.444;27.488;2024-02-16T08:21:55;7.38;76.55
85176;SHT31;75548;42.444;27.488;2024-02-16T08:25:20;7.40;76.35
85176;SHT31;75548;42.444;27.488;2024-02-16T08:28:46;7.41;76.05
85176;SHT31;75548;42.444;27.488;2024-02-16T08:32:11;7.50;76.73
85176;SHT31;75548;42.444;27.488;2024-02-16T08:35:37;7.59;76.27
85176;SHT31;75548;42.444;27.488;2024-02-16T08:39:02;7.59;76.08
85176;SHT31;75548;42.444;27.488;2024-02-16T08:42:27;7.59;76.59
85176;SHT31;75548;42.444;27.488;2024-02-16T08:45:53;7.65;76.57
85176;SHT31;75548;42.444;27.488;2024-02-16T08:49:18;7.61;76.48
85176;SHT31;75548;42.444;27.488;2024-02-16T08:52:44;7.61;76.77
85176;SHT31;75548;42.444;27.488;2024-02-16T08:56:09;7.58;76.48
85176;SHT31;75548;42.444;27.488;2024-02-16T08:59:34;7.54;76.87
85176;SHT31;75548;42.444;27.488;2024-02-16T09:03:00;7.54;76.02
85176;SHT31;75548;42.444;27.488;2024-02-16T09:06:25;7.56;76.32
85176;SHT31;75548;42.444;27.488;2024-02-16T09:09:51;7.62;75.82
85176;SHT31;75548;42.444;27.488;2024-02-16T09:13:16;7.61;76.44
85176;SHT31;75548;42.444;27.488;2024-02-16T09:16:41;7.68;75.98
85176;SHT31;75548;42.444;27.488;2024-02-16T09:20:07;7.75;75.57
85176;SHT31;75548;42.444;27.488;2024-02-16T09:23:32;7.78;75.08
85176;SHT31;75548;42.444;27.488;2024-02-16T09:26:58;7.82;75.19
85176;SHT31;75548;42.444;27.488;2024-02-16T09:30:23;7.81;75.21
85176;SHT31;75548;42.444;27.488;2024-02-16T09:33:49;7.82;75.33
85176;SHT31;75548;42.444;27.488;2024-02-16T09:37:14;7.87;75.28
85176;SHT31;75548;42.444;27.488;2024-02-16T09:40:39;7.86;75.79
85176;SHT31;75548;42.444;27.488;2024-02-16T09:44:05;7.86;76.33
85176;SHT31;75548;42.444;27.488;2024-02-16T09:47:30;7.93;75.92
85176;SHT31;75548;42.444;27.488;2024-02-16T09:50:56;7.90;75.68
85176;SHT31;75548;42.444;27.488;2024-02-16T09:54:21;7.82;75.99
85176;SHT31;75548;42.444;27.488;2024-02-16T09:57:46;7.71;76.72
85176;SHT31;75548;42.444;27.488;2024-02-16T10:01:18;7.69;76.75
85176;SHT31;75548;42.444;27.488;2024-02-16T10:04:32;7.66;76.96
85176;SHT31;75548;42.444;27.488;2024-02-16T10:07:57;7.64;77.75
85176;SHT31;75548;42.444;27.488;2024-02-16T10:11:24;7.59;77.62
85176;SHT31;75548;42.444;27.488;2024-02-16T10:14:54;7.55;77.21
85176;SHT31;75548;42.444;27.488;2024-02-16T10:18:19;7.55;77.14
85176;SHT31;75548;42.444;27.488;2024-02-16T10:21:45;7.50;77.96
85176;SHT31;75548;42.444;27.488;2024-02-16T10:25:10;7.45;78.71
85176;SHT31;75548;42.444;27.488;2024-02-16T10:28:35;7.48;78.45
85176;SHT31;75548;42.444;27.488;2024-02-16T10:32:03;7.55;78.79
85176;SHT31;75548;42.444;27.488;2024-02-16T10:35:29;7.56;77.36
85176;SHT31;75548;42.444;27.488;2024-02-16T10:38:55;7.58;76.92
85176;SHT31;75548;42.444;27.488;2024-02-16T10:42:20;7.59;76.95
85176;SHT31;75548;42.444;27.488;2024-02-16T10:45:45;7.59;76.84
85176;SHT31;75548;42.444;27.488;2024-02-16T10:49:10;7.55;76.39
85176;SHT31;75548;42.444;27.488;2024-02-16T10:52:36;7.55;77.18
85176;SHT31;75548;42.444;27.488;2024-02-16T10:56:01;7.55;77.16
85176;SHT31;75548;42.444;27.488;2024-02-16T10:59:27;7.52;77.08
85176;SHT31;75548;42.444;27.488;2024-02-16T11:02:53;7.58;77.82
85176;SHT31;75548;42.444;27.488;2024-02-16T11:06:17;7.48;78.58
85176;SHT31;75548;42.444;27.488;2024-02-16T11:09:43;7.35;78.75
85176;SHT31;75548;42.444;27.488;2024-02-16T11:13:08;7.43;78.86
85176;SHT31;75548;42.444;27.488;2024-02-16T11:16:43;7.37;79.64
85176;SHT31;75548;42.444;27.488;2024-02-16T11:20:02;7.31;79.98
85176;SHT31;75548;42.444;27.488;2024-02-16T11:23:30;7.31;80.34
85176;SHT31;75548;42.444;27.488;2024-02-16T11:26:55;7.37;80.50
85176;SHT31;75548;42.444;27.488;2024-02-16T11:30:21;7.35;80.46
85176;SHT31;75548;42.444;27.488;2024-02-16T11:33:46;7.31;80.22
85176;SHT31;75548;42.444;27.488;2024-02-16T11:37:12;7.37;80.13
85176;SHT31;75548;42.444;27.488;2024-02-16T11:40:37;7.41;80.09
85176;SHT31;75548;42.444;27.488;2024-02-16T11:44:02;7.43;79.16
85176;SHT31;75548;42.444;27.488;2024-02-16T11:47:28;7.45;78.80
85176;SHT31;75548;42.444;27.488;2024-02-16T11:51:02;7.34;79.66
85176;SHT31;75548;42.444;27.488;2024-02-16T11:54:05;7.34;79.97
85176;SHT31;75548;42.444;27.488;2024-02-16T11:56:51;7.32;81.43
85176;SHT31;75548;42.444;27.488;2024-02-16T12:00:16;7.30;81.17
85176;SHT31;75548;42.444;27.488;2024-02-16T12:03:42;7.26;80.77
85176;SHT31;75548;42.444;27.488;2024-02-16T12:07:07;7.23;80.38
85176;SHT31;75548;42.444;27.488;2024-02-16T12:10:33;7.20;80.50
85176;SHT31;75548;42.444;27.488;2024-02-16T12:13:58;7.13;81.68
85176;SHT31;75548;42.444;27.488;2024-02-16T12:17:24;7.13;81.80
85176;SHT31;75548;42.444;27.488;2024-02-16T12:21:05;7.17;82.00
85176;SHT31;75548;42.444;27.488;2024-02-16T12:24:29;7.07;81.82
85176;SHT31;75548;42.444;27.488;2024-02-16T12:27:55;7.06;82.63
85176;SHT31;75548;42.444;27.488;2024-02-16T12:31:20;7.03;82.75
85176;SHT31;75548;42.444;27.488;2024-02-16T12:34:46;7.00;82.75
85176;SHT31;75548;42.444;27.488;2024-02-16T12:38:11;6.96;83.05
85176;SHT31;75548;42.444;27.488;2024-02-16T12:41:36;6.95;82.96
85176;SHT31;75548;42.444;27.488;2024-02-16T12:45:02;6.93;84.01
85176;SHT31;75548;42.444;27.488;2024-02-16T12:48:27;6.85;84.67
85176;SHT31;75548;42.444;27.488;2024-02-16T12:51:53;6.80;84.48
85176;SHT31;75548;42.444;27.488;2024-02-16T12:55:18;6.80;84.57
85176;SHT31;75548;42.444;27.488;2024-02-16T12:58:43;6.73;84.86
85176;SHT31;75548;42.444;27.488;2024-02-16T13:02:09;6.72;85.86
85176;SHT31;75548;42.444;27.488;2024-02-16T13:05:34;6.68;85.40
85176;SHT31;75548;42.444;27.488;2024-02-16T13:08:44;6.69;85.42
85176;SHT31;75548;42.444;27.488;2024-02-16T13:11:29;6.69;85.45
85176;SHT31;75548;42.444;27.488;2024-02-16T13:14:55;6.68;86.24
85176;SHT31;75548;42.444;27.488;2024-02-16T13:18:20;6.62;86.73
85176;SHT31;75548;42.444;27.488;2024-02-16T13:21:45;6.59;86.83
85176;SHT31;75548;42.444;27.488;2024-02-16T13:25:11;6.71;85.66
85176;SHT31;75548;42.444;27.488;2024-02-16T13:28:36;6.71;85.03
85176;SHT31;75548;42.444;27.488;2024-02-16T13:32:02;6.71;84.91
85176;SHT31;75548;42.444;27.488;2024-02-16T13:35:27;6.71;85.02
85176;SHT31;75548;42.444;27.488;2024-02-16T13:38:52;6.73;85.35
85176;SHT31;75548;42.444;27.488;2024-02-16T13:42:18;6.77;85.42
85176;SHT31;75548;42.444;27.488;2024-02-16T13:45:50;6.76;85.60
85176;SHT31;75548;42.444;27.488;2024-02-16T13:49:14;6.72;85.97
85176;SHT31;75548;42.444;27.488;2024-02-16T13:52:40;6.71;86.86
85176;SHT31;75548;42.444;27.488;2024-02-16T13:56:05;6.73;86.80
85176;SHT31;75548;42.444;27.488;2024-02-16T13:59:31;6.73;86.24
85176;SHT31;75548;42.444;27.488;2024-02-16T14:02:59;6.72;86.72
85176;SHT31;75548;42.444;27.488;2024-02-16T14:06:24;6.71;86.58
85176;SHT31;75548;42.444;27.488;2024-02-16T14:09:50;6.68;87.06
85176;SHT31;75548;42.444;27.488;2024-02-16T14:13:15;6.62;86.81
85176;SHT31;75548;42.444;27.488;2024-02-16T14:16:41;6.64;87.04
85176;SHT31;75548;42.444;27.488;2024-02-16T14:20:06;6.59;87.70
85176;SHT31;75548;42.444;27.488;2024-02-16T14:23:32;6.61;87.62
85176;SHT31;75548;42.444;27.488;2024-02-16T14:26:57;6.61;86.72
85176;SHT31;75548;42.444;27.488;2024-02-16T14:30:22;6.65;86.08
85176;SHT31;75548;42.444;27.488;2024-02-16T14:33:48;6.68;86.30
85176;SHT31;75548;42.444;27.488;2024-02-16T14:37:13;6.69;85.26
85176;SHT31;75548;42.444;27.488;2024-02-16T14:40:39;6.61;85.94
85176;SHT31;75548;42.444;27.488;2024-02-16T14:44:04;6.55;86.97
85176;SHT31;75548;42.444;27.488;2024-02-16T14:47:29;6.45;87.61
85176;SHT31;75548;42.444;27.488;2024-02-16T14:50:55;6.48;87.73
85176;SHT31;75548;42.444;27.488;2024-02-16T14:54:20;6.46;87.67
85176;SHT31;75548;42.444;27.488;2024-02-16T14:57:46;6.48;88.00
85176;SHT31;75548;42.444;27.488;2024-02-16T15:01:11;6.50;87.94
85176;SHT31;75548;42.444;27.488;2024-02-16T15:04:39;6.55;87.48
85176;SHT31;75548;42.444;27.488;2024-02-16T15:08:05;6.50;87.28
85176;SHT31;75548;42.444;27.488;2024-02-16T15:11:30;6.56;87.89
85176;SHT31;75548;42.444;27.488;2024-02-16T15:14:55;6.61;87.26
85176;SHT31;75548;42.444;27.488;2024-02-16T15:18:21;6.58;87.36
85176;SHT31;75548;42.444;27.488;2024-02-16T15:21:46;6.55;87.45
85176;SHT31;75548;42.444;27.488;2024-02-16T15:25:12;6.48;87.54
85176;SHT31;75548;42.444;27.488;2024-02-16T15:28:37;6.38;87.89
85176;SHT31;75548;42.444;27.488;2024-02-16T15:32:02;6.42;88.57
85176;SHT31;75548;42.444;27.488;2024-02-16T15:35:28;6.45;88.28
85176;SHT31;75548;42.444;27.488;2024-02-16T15:38:53;6.45;87.84
85176;SHT31;75548;42.444;27.488;2024-02-16T15:42:19;6.50;87.56
85176;SHT31;75548;42.444;27.488;2024-02-16T15:45:44;6.50;87.52
85176;SHT31;75548;42.444;27.488;2024-02-16T15:49:10;6.44;87.09
85176;SHT31;75548;42.444;27.488;2024-02-16T15:52:35;6.46;87.48
85176;SHT31;75548;42.444;27.488;2024-02-16T15:56:00;6.46;87.66
85176;SHT31;75548;42.444;27.488;2024-02-16T15:59:26;6.55;87.44
85176;SHT31;75548;42.444;27.488;2024-02-16T16:02:51;6.61;86.47
85176;SHT31;75548;42.444;27.488;2024-02-16T16:06:17;6.58;85.96
85176;SHT31;75548;42.444;27.488;2024-02-16T16:09:42;6.58;86.31
85176;SHT31;75548;42.444;27.488;2024-02-16T16:13:07;6.62;87.11
85176;SHT31;75548;42.444;27.488;2024-02-16T16:16:33;6.53;88.11
85176;SHT31;75548;42.444;27.488;2024-02-16T16:19:58;6.46;88.10
85176;SHT31;75548;42.444;27.488;2024-02-16T16:23:23;6.44;88.64
85176;SHT31;75548;42.444;27.488;2024-02-16T16:26:49;6.37;89.17
85176;SHT31;75548;42.444;27.488;2024-02-16T16:30:14;6.27;89.34
85176;SHT31;75548;42.444;27.488;2024-02-16T16:33:40;6.22;88.77
85176;SHT31;75548;42.444;27.488;2024-02-16T16:37:05;6.24;88.97
85176;SHT31;75548;42.444;27.488;2024-02-16T16:40:31;6.28;88.88
85176;SHT31;75548;42.444;27.488;2024-02-16T16:43:56;6.22;88.86
85176;SHT31;75548;42.444;27.488;2024-02-16T16:47:21;6.18;88.40
85176;SHT31;75548;42.444;27.488;2024-02-16T16:50:47;6.25;88.25
85176;SHT31;75548;42.444;27.488;2024-02-16T16:54:12;6.20;88.17
85176;SHT31;75548;42.444;27.488;2024-02-16T16:57:37;6.18;88.17
85176;SHT31;75548;42.444;27.488;2024-02-16T17:01:03;6.16;88.46
85176;SHT31;75548;42.444;27.488;2024-02-16T17:04:31;6.17;88.35
85176;SHT31;75548;42.444;27.488;2024-02-16T17:07:54;6.10;89.26
85176;SHT31;75548;42.444;27.488;2024-02-16T17:11:03;6.01;89.26
85176;SHT31;75548;42.444;27.488;2024-02-16T17:13:29;6.06;89.72
85176;SHT31;75548;42.444;27.488;2024-02-16T17:16:14;6.01;90.10
85176;SHT31;75548;42.444;27.488;2024-02-16T17:19:40;5.94;90.55
85176;SHT31;75548;42.444;27.488;2024-02-16T17:23:05;5.90;90.66
85176;SHT31;75548;42.444;27.488;2024-02-16T17:26:30;5.90;90.75
85176;SHT31;75548;42.444;27.488;2024-02-16T17:29:56;5.90;90.97
85176;SHT31;75548;42.444;27.488;2024-02-16T17:33:21;5.87;90.61
85176;SHT31;75548;42.444;27.488;2024-02-16T17:36:47;5.94;91.09
85176;SHT31;75548;42.444;27.488;2024-02-16T17:40:12;5.91;89.68
85176;SHT31;75548;42.444;27.488;2024-02-16T17:43:38;5.89;89.44
85176;SHT31;75548;42.444;27.488;2024-02-16T17:47:03;5.93;89.81
85176;SHT31;75548;42.444;27.488;2024-02-16T17:50:30;5.98;89.90
85176;SHT31;75548;42.444;27.488;2024-02-16T17:53:54;5.97;88.98
85176;SHT31;75548;42.444;27.488;2024-02-16T17:57:19;6.00;89.72
85176;SHT31;75548;42.444;27.488;2024-02-16T18:00:45;5.97;89.39
85176;SHT31;75548;42.444;27.488;2024-02-16T18:04:10;6.01;88.79
85176;SHT31;75548;42.444;27.488;2024-02-16T18:07:35;6.00;88.87
85176;SHT31;75548;42.444;27.488;2024-02-16T18:11:01;5.97;88.08
85176;SHT31;75548;42.444;27.488;2024-02-16T18:14:26;6.03;88.68
85176;SHT31;75548;42.444;27.488;2024-02-16T18:17:51;6.04;88.10
85176;SHT31;75548;42.444;27.488;2024-02-16T18:21:17;6.00;87.93
85176;SHT31;75548;42.444;27.488;2024-02-16T18:24:42;6.03;88.20
85176;SHT31;75548;42.444;27.488;2024-02-16T18:28:08;6.00;87.82
85176;SHT31;75548;42.444;27.488;2024-02-16T18:31:33;6.01;87.23
85176;SHT31;75548;42.444;27.488;2024-02-16T18:34:58;5.98;88.00
85176;SHT31;75548;42.444;27.488;2024-02-16T18:41:48;6.00;87.97
85176;SHT31;75548;42.444;27.488;2024-02-16T18:45:14;6.00;87.26
85176;SHT31;75548;42.444;27.488;2024-02-16T18:48:39;5.91;87.13
85176;SHT31;75548;42.444;27.488;2024-02-16T18:52:04;5.89;86.84
85176;SHT31;75548;42.444;27.488;2024-02-16T18:55:30;5.85;87.45
85176;SHT31;75548;42.444;27.488;2024-02-16T18:58:55;5.91;85.34
85176;SHT31;75548;42.444;27.488;2024-02-16T19:02:21;5.96;85.32
85176;SHT31;75548;42.444;27.488;2024-02-16T19:05:49;5.98;84.83
85176;SHT31;75548;42.444;27.488;2024-02-16T19:08:34;6.01;83.91
85176;SHT31;75548;42.444;27.488;2024-02-16T19:11:20;5.96;83.52
85176;SHT31;75548;42.444;27.488;2024-02-16T19:14:45;5.97;83.15
85176;SHT31;75548;42.444;27.488;2024-02-16T19:18:11;5.96;82.69
85176;SHT31;75548;42.444;27.488;2024-02-16T19:21:36;6.00;82.98
85176;SHT31;75548;42.444;27.488;2024-02-16T19:25:02;6.01;82.81
85176;SHT31;75548;42.444;27.488;2024-02-16T19:28:27;6.01;81.73
85176;SHT31;75548;42.444;27.488;2024-02-16T19:31:52;6.03;82.08
85176;SHT31;75548;42.444;27.488;2024-02-16T19:35:18;6.04;82.11
85176;SHT31;75548;42.444;27.488;2024-02-16T19:38:43;6.01;81.29
85176;SHT31;75548;42.444;27.488;2024-02-16T19:42:09;6.06;82.17
85176;SHT31;75548;42.444;27.488;2024-02-16T19:45:34;6.04;81.99
85176;SHT31;75548;42.444;27.488;2024-02-16T19:48:59;6.03;81.48
85176;SHT31;75548;42.444;27.488;2024-02-16T19:52:25;6.06;82.01
85176;SHT31;75548;42.444;27.488;2024-02-16T19:55:50;6.00;80.94
85176;SHT31;75548;42.444;27.488;2024-02-16T19:59:16;6.00;81.31
85176;SHT31;75548;42.444;27.488;2024-02-16T20:02:41;6.03;81.34
85176;SHT31;75548;42.444;27.488;2024-02-16T20:06:06;6.00;81.76
85176;SHT31;75548;42.444;27.488;2024-02-16T20:09:32;5.94;81.23
85176;SHT31;75548;42.444;27.488;2024-02-16T20:12:57;5.91;81.91
85176;SHT31;75548;42.444;27.488;2024-02-16T20:16:23;5.93;82.13
85176;SHT31;75548;42.444;27.488;2024-02-16T20:19:48;5.93;82.08
85176;SHT31;75548;42.444;27.488;2024-02-16T20:23:15;5.97;82.88
85176;SHT31;75548;42.444;27.488;2024-02-16T20:26:45;5.93;83.18
85176;SHT31;75548;42.444;27.488;2024-02-16T20:30:10;5.91;83.00
85176;SHT31;75548;42.444;27.488;2024-02-16T20:33:51;5.90;82.40
85176;SHT31;75548;42.444;27.488;2024-02-16T20:37:16;5.96;82.18
85176;SHT31;75548;42.444;27.488;2024-02-16T20:40:42;5.90;82.35
85176;SHT31;75548;42.444;27.488;2024-02-16T20:44:07;5.85;82.15
85176;SHT31;75548;42.444;27.488;2024-02-16T20:47:32;5.89;82.29
85176;SHT31;75548;42.444;27.488;2024-02-16T20:50:58;5.85;82.34
85176;SHT31;75548;42.444;27.488;2024-02-16T20:54:23;5.80;82.61
85176;SHT31;75548;42.444;27.488;2024-02-16T20:57:49;5.76;82.42
85176;SHT31;75548;42.444;27.488;2024-02-16T21:01:14;5.71;82.11
85176;SHT31;75548;42.444;27.488;2024-02-16T21:04:51;5.71;83.61
85176;SHT31;75548;42.444;27.488;2024-02-16T21:08:17;5.74;82.26
85176;SHT31;75548;42.444;27.488;2024-02-16T21:11:42;5.69;82.39
85176;SHT31;75548;42.444;27.488;2024-02-16T21:15:08;5.71;82.14
85176;SHT31;75548;42.444;27.488;2024-02-16T21:18:33;5.77;82.36
85176;SHT31;75548;42.444;27.488;2024-02-16T21:21:59;5.74;81.46
85176;SHT31;75548;42.444;27.488;2024-02-16T21:25:24;5.74;82.09
85176;SHT31;75548;42.444;27.488;2024-02-16T21:28:49;5.67;81.91
85176;SHT31;75548;42.444;27.488;2024-02-16T21:32:15;5.71;81.37